KAUM

Austin Municipal Airport

Austin, Minnesota, USA
METAR KAUM 170215Z AUTO 04004KT 10SM CLR M03/M05 A3003 RMK AO2
Observed Flight Rules
Dec-17 @ 02:15 UTC (17 minutes ago) Visual Flight Rules
Wind Visibility Clouds
40° at 4 knots 10 miles
  • Clear skies
Temperatures Readings
Current -3°C / 27°F
Dewpoint -5°C / 23°F
Humidity 86%
Altimeter 30.03" Hg
Pressure 1017 hPa
Elevation 375
METAR KAUM 170215Z AUTO 04004KT 10SM CLR M03/M05 A3003 RMK AO2
Observed Flight Rules
Dec-17 @ 02:15 UTC
(17 minutes ago)
VFR
Wind Visibility
40° at 4 knots 10 miles
Clouds
  • Clear skies
Temperature Dewpoint
-3°C / 27°F -5°C / 23°F
Humidity Altimeter Pressure
86% 30.03" Hg 1017 hPa